Wetterdaten: Woche 07.08.17 - 13.08.17 (KW32)
Datum Zeit Temp. A. Feuchte A. Luftdruck Regen Wind Richtung Taupunkt Windchill Windben
07.08.2017 00:00 17,0 C 81 % 1020,4 hPa 0,3 l/m 6,6 km/h N 13,7 C 16,7 C 20,5 km/h
07.08.2017 01:00 17,0 C 81 % 1020,5 hPa 0,0 l/m 8,1 km/h N 13,8 C 16,2 C 20,1 km/h
07.08.2017 02:00 17,2 C 81 % 1020,5 hPa 0,0 l/m 7,5 km/h N 13,8 C 16,6 C 19,3 km/h
07.08.2017 03:00 17,2 C 80 % 1020,4 hPa 0,0 l/m 7,9 km/h N 13,7 C 16,4 C 18,1 km/h
07.08.2017 04:00 17,0 C 80 % 1020,4 hPa 0,0 l/m 4,5 km/h N 13,4 C 17,0 C 15,3 km/h
07.08.2017 05:00 16,8 C 79 % 1020,6 hPa 0,0 l/m 6,2 km/h N 13,1 C 16,7 C 15,3 km/h
07.08.2017 06:00 16,3 C 80 % 1020,7 hPa 0,0 l/m 5,2 km/h N 12,8 C 16,3 C 15,3 km/h
07.08.2017 07:00 16,8 C 79 % 1020,8 hPa 0,0 l/m 5,4 km/h N 13,2 C 16,7 C 18,1 km/h
07.08.2017 08:00 17,9 C 76 % 1020,9 hPa 0,0 l/m 6,9 km/h N 13,6 C 17,6 C 18,9 km/h
07.08.2017 09:00 19,3 C 70 % 1020,8 hPa 0,0 l/m 3,9 km/h N 13,8 C 19,3 C 16,5 km/h
07.08.2017 10:00 20,7 C 66 % 1020,8 hPa 0,0 l/m 3,3 km/h N 14,1 C 20,7 C 12,9 km/h
07.08.2017 11:00 21,7 C 63 % 1020,5 hPa 0,0 l/m 3,4 km/h N 14,2 C 21,7 C 15,7 km/h
07.08.2017 12:00 22,7 C 60 % 1020,0 hPa 0,0 l/m 2,9 km/h N 14,4 C 22,7 C 12,9 km/h
07.08.2017 13:00 23,1 C 55 % 1019,7 hPa 0,0 l/m 1,9 km/h N 13,5 C 23,1 C 9,7 km/h
07.08.2017 14:00 23,8 C 53 % 1019,1 hPa 0,0 l/m 0,5 km/h N 13,4 C 23,8 C 6,0 km/h
07.08.2017 15:00 24,2 C 49 % 1018,5 hPa 0,0 l/m 0,2 km/h N 12,8 C 24,2 C 4,8 km/h
07.08.2017 16:00 24,2 C 48 % 1018,2 hPa 0,0 l/m 1,3 km/h N 12,5 C 24,2 C 8,9 km/h
07.08.2017 17:00 24,4 C 48 % 1017,9 hPa 0,0 l/m 0,4 km/h N 12,8 C 24,4 C 5,2 km/h
07.08.2017 18:00 24,4 C 48 % 1017,5 hPa 0,0 l/m 0,0 km/h N 12,7 C 24,4 C 3,2 km/h
07.08.2017 19:00 24,5 C 48 % 1017,4 hPa 0,0 l/m 0,0 km/h N 12,6 C 24,5 C 2,0 km/h
07.08.2017 20:00 23,2 C 54 % 1017,3 hPa 0,0 l/m 0,0 km/h N 13,4 C 23,2 C 0,4 km/h
07.08.2017 21:00 20,0 C 66 % 1017,8 hPa 0,0 l/m 0,1 km/h N 13,4 C 20,0 C 1,6 km/h
07.08.2017 22:00 19,5 C 72 % 1018,0 hPa 0,0 l/m 0,2 km/h N 14,3 C 19,5 C 3,6 km/h
07.08.2017 23:00 19,3 C 73 % 1017,9 hPa 0,0 l/m 0,2 km/h N 14,4 C 19,3 C 2,8 km/h
08.08.2017 00:00 18,5 C 74 % 1017,8 hPa 0,0 l/m 0,0 km/h N 13,8 C 18,5 C 0,8 km/h
08.08.2017 01:00 17,3 C 77 % 1017,6 hPa 0,0 l/m 0,0 km/h N 13,2 C 17,3 C 0,4 km/h
08.08.2017 02:00 16,0 C 79 % 1017,2 hPa 0,0 l/m 0,0 km/h N 12,4 C 16,0 C 0,4 km/h
08.08.2017 03:00 15,1 C 81 % 1017,0 hPa 0,0 l/m 0,0 km/h N 11,9 C 15,1 C 0,0 km/h
08.08.2017 04:00 14,9 C 81 % 1016,5 hPa 0,0 l/m 0,0 km/h N 11,7 C 14,9 C 0,0 km/h
08.08.2017 05:00 14,9 C 82 % 1016,3 hPa 0,0 l/m 0,0 km/h N 11,8 C 14,9 C 0,0 km/h
08.08.2017 06:00 15,1 C 82 % 1016,0 hPa 0,0 l/m 0,0 km/h N 12,1 C 15,1 C 1,2 km/h
08.08.2017 07:00 16,5 C 82 % 1015,9 hPa 0,0 l/m 0,4 km/h N 13,4 C 16,5 C 4,8 km/h
08.08.2017 08:00 18,2 C 82 % 1015,4 hPa 0,0 l/m 1,5 km/h N 15,0 C 18,2 C 8,9 km/h
08.08.2017 09:00 20,3 C 78 % 1015,2 hPa 0,0 l/m 2,8 km/h N 16,3 C 20,3 C 12,9 km/h
08.08.2017 10:00 22,2 C 71 % 1015,0 hPa 0,0 l/m 4,5 km/h N 16,7 C 22,2 C 16,9 km/h
08.08.2017 11:00 22,1 C 73 % 1014,7 hPa 0,0 l/m 3,3 km/h N 16,9 C 22,1 C 13,7 km/h
08.08.2017 12:00 22,4 C 69 % 1014,1 hPa 0,0 l/m 4,3 km/h N 16,5 C 22,4 C 17,7 km/h
08.08.2017 13:00 24,3 C 64 % 1013,4 hPa 0,0 l/m 4,7 km/h N 17,1 C 24,3 C 17,3 km/h
08.08.2017 14:00 24,9 C 63 % 1013,0 hPa 0,0 l/m 4,5 km/h N 17,3 C 24,9 C 16,1 km/h
08.08.2017 15:00 25,4 C 63 % 1012,3 hPa 0,0 l/m 5,0 km/h N 17,8 C 25,4 C 17,3 km/h
08.08.2017 16:00 25,4 C 63 % 1012,1 hPa 0,0 l/m 4,2 km/h N 17,8 C 25,4 C 16,5 km/h
08.08.2017 17:00 25,6 C 64 % 1012,0 hPa 0,0 l/m 3,4 km/h N 18,3 C 25,6 C 15,3 km/h
08.08.2017 18:00 25,2 C 66 % 1011,7 hPa 0,0 l/m 3,7 km/h N 18,4 C 25,2 C 12,5 km/h
08.08.2017 19:00 25,1 C 67 % 1011,8 hPa 0,0 l/m 2,1 km/h N 18,5 C 25,1 C 10,9 km/h
08.08.2017 20:00 24,3 C 69 % 1012,0 hPa 0,0 l/m 0,6 km/h N 18,2 C 24,3 C 4,4 km/h
08.08.2017 21:00 23,1 C 73 % 1012,4 hPa 0,0 l/m 0,2 km/h N 18,0 C 23,1 C 4,4 km/h
08.08.2017 22:00 22,4 C 75 % 1012,4 hPa 0,0 l/m 0,3 km/h N 17,8 C 22,4 C 5,6 km/h
08.08.2017 23:00 21,7 C 77 % 1012,6 hPa 0,0 l/m 0,2 km/h N 17,5 C 21,7 C 5,2 km/h
09.08.2017 00:00 20,8 C 78 % 1012,7 hPa 0,0 l/m 0,0 km/h N 16,7 C 20,8 C 0,8 km/h
09.08.2017 01:00 19,5 C 81 % 1014,0 hPa 0,0 l/m 0,0 km/h N 16,1 C 19,5 C 1,6 km/h
09.08.2017 02:00 21,0 C 77 % 1014,5 hPa 0,0 l/m 2,9 km/h N 16,9 C 21,0 C 16,5 km/h
09.08.2017 03:00 21,3 C 69 % 1015,1 hPa 0,0 l/m 1,6 km/h N 15,4 C 21,3 C 9,3 km/h
09.08.2017 04:00 20,8 C 69 % 1014,8 hPa 0,0 l/m 0,4 km/h N 14,8 C 20,8 C 4,4 km/h
09.08.2017 05:00 18,9 C 74 % 1014,6 hPa 0,0 l/m 0,0 km/h N 14,1 C 18,9 C 0,4 km/h
09.08.2017 06:00 17,3 C 80 % 1015,1 hPa 0,0 l/m 0,0 km/h N 13,7 C 17,3 C 0,8 km/h
09.08.2017 07:00 18,0 C 81 % 1015,6 hPa 0,0 l/m 0,0 km/h N 14,6 C 18,0 C 1,6 km/h
09.08.2017 08:00 20,8 C 73 % 1016,7 hPa 0,0 l/m 3,8 km/h N 15,8 C 20,8 C 14,1 km/h
09.08.2017 09:00 23,0 C 65 % 1016,8 hPa 0,0 l/m 5,0 km/h N 16,1 C 23,0 C 17,7 km/h
09.08.2017 10:00 24,6 C 63 % 1017,1 hPa 0,0 l/m 4,7 km/h N 17,0 C 24,6 C 16,1 km/h
09.08.2017 11:00 25,9 C 58 % 1016,2 hPa 0,0 l/m 2,1 km/h N 16,9 C 25,9 C 9,2 km/h
09.08.2017 12:00 27,8 C 53 % 1015,6 hPa 0,0 l/m 0,3 km/h N 17,1 C 27,8 C 5,2 km/h
09.08.2017 13:00 27,9 C 56 % 1015,2 hPa 0,3 l/m 0,2 km/h N 18,3 C 27,9 C 3,2 km/h
09.08.2017 14:00 29,9 C 49 % 1014,4 hPa 0,3 l/m 1,3 km/h N 18,1 C 29,9 C 9,3 km/h
09.08.2017 15:00 30,5 C 51 % 1013,8 hPa 0,0 l/m 0,8 km/h N 19,1 C 30,5 C 5,6 km/h
09.08.2017 16:00 30,1 C 54 % 1013,2 hPa 0,0 l/m 1,8 km/h N 19,7 C 30,1 C 8,8 km/h
09.08.2017 17:00 29,9 C 55 % 1013,1 hPa 0,0 l/m 1,6 km/h N 19,9 C 29,9 C 8,9 km/h
09.08.2017 18:00 29,9 C 57 % 1012,9 hPa 0,0 l/m 0,6 km/h N 20,3 C 29,9 C 7,7 km/h
09.08.2017 19:00 29,7 C 57 % 1012,8 hPa 0,0 l/m 0,6 km/h N 20,4 C 29,7 C 5,6 km/h
09.08.2017 20:00 28,9 C 61 % 1012,8 hPa 0,0 l/m 0,4 km/h N 20,4 C 28,9 C 4,4 km/h
09.08.2017 21:00 27,4 C 66 % 1013,1 hPa 0,0 l/m 0,0 km/h N 20,3 C 27,4 C 0,8 km/h
09.08.2017 22:00 25,5 C 72 % 1012,9 hPa 0,0 l/m 0,0 km/h N 20,0 C 25,5 C 0,0 km/h
09.08.2017 23:00 23,7 C 76 % 1012,9 hPa 0,0 l/m 0,0 km/h N 19,2 C 23,7 C 0,0 km/h
10.08.2017 00:00 22,8 C 79 % 1012,8 hPa 0,0 l/m 0,0 km/h N 19,0 C 22,8 C 0,0 km/h
10.08.2017 01:00 22,3 C 80 % 1013,1 hPa 0,0 l/m 0,1 km/h N 18,7 C 22,3 C 0,8 km/h
10.08.2017 02:00 23,0 C 80 % 1014,1 hPa 0,0 l/m 1,9 km/h N 19,2 C 23,0 C 10,9 km/h
10.08.2017 03:00 25,2 C 66 % 1013,9 hPa 0,0 l/m 0,4 km/h N 18,3 C 25,2 C 6,8 km/h
10.08.2017 04:00 24,8 C 64 % 1012,6 hPa 0,0 l/m 0,1 km/h N 17,5 C 24,8 C 2,4 km/h
10.08.2017 05:00 23,4 C 71 % 1012,5 hPa 0,0 l/m 0,0 km/h N 17,7 C 23,4 C 0,8 km/h
10.08.2017 06:00 22,2 C 76 % 1013,0 hPa 0,0 l/m 0,0 km/h N 17,7 C 22,2 C 0,0 km/h
10.08.2017 07:00 22,0 C 80 % 1012,7 hPa 0,0 l/m 0,0 km/h N 18,4 C 22,0 C 0,8 km/h
10.08.2017 08:00 24,3 C 77 % 1013,1 hPa 0,0 l/m 0,9 km/h N 20,1 C 24,3 C 7,2 km/h
10.08.2017 09:00 26,7 C 71 % 1012,8 hPa 0,0 l/m 0,2 km/h N 21,0 C 26,7 C 3,2 km/h
10.08.2017 10:00 28,7 C 66 % 1013,7 hPa 0,0 l/m 0,3 km/h N 21,8 C 28,7 C 4,4 km/h
10.08.2017 11:00 28,0 C 66 % 1014,1 hPa 0,0 l/m 5,2 km/h N 21,1 C 28,0 C 18,9 km/h
10.08.2017 12:00 29,5 C 55 % 1014,3 hPa 0,0 l/m 0,8 km/h N 19,5 C 29,5 C 7,7 km/h
10.08.2017 13:00 31,6 C 46 % 1013,1 hPa 0,0 l/m 0,5 km/h N 18,4 C 31,6 C 4,8 km/h
10.08.2017 14:00 32,2 C 43 % 1011,8 hPa 0,0 l/m 1,3 km/h N 18,0 C 32,2 C 8,9 km/h
10.08.2017 15:00 32,2 C 45 % 1012,6 hPa 0,0 l/m 0,8 km/h N 18,8 C 32,2 C 8,4 km/h
10.08.2017 16:00 24,0 C 71 % 1014,4 hPa 3,1 l/m 3,2 km/h N 18,3 C 24,0 C 12,9 km/h
10.08.2017 17:00 22,0 C 80 % 1013,0 hPa 0,0 l/m 0,1 km/h N 18,4 C 22,0 C 1,2 km/h
10.08.2017 18:00 22,4 C 81 % 1012,3 hPa 0,0 l/m 0,2 km/h N 19,0 C 22,4 C 2,4 km/h
10.08.2017 19:00 22,3 C 81 % 1011,5 hPa 0,0 l/m 0,0 km/h N 18,9 C 22,3 C 1,2 km/h
10.08.2017 20:00 21,9 C 81 % 1011,4 hPa 0,0 l/m 0,3 km/h N 18,5 C 21,9 C 4,0 km/h
10.08.2017 21:00 22,0 C 81 % 1011,7 hPa 0,0 l/m 0,5 km/h N 18,6 C 22,0 C 6,0 km/h
10.08.2017 22:00 20,8 C 79 % 1016,3 hPa 7,3 l/m 8,5 km/h N 17,0 C 19,9 C 31,8 km/h
10.08.2017 23:00 19,4 C 82 % 1016,6 hPa 3,4 l/m 1,5 km/h N 16,1 C 19,4 C 10,1 km/h
11.08.2017 00:00 19,1 C 82 % 1013,9 hPa 1,3 l/m 0,9 km/h N 16,0 C 19,1 C 3,6 km/h
11.08.2017 01:00 18,9 C 82 % 1011,0 hPa 1,0 l/m 4,2 km/h N 15,7 C 18,5 C 17,7 km/h
11.08.2017 02:00 18,8 C 82 % 1012,2 hPa 1,0 l/m 1,6 km/h N 15,7 C 18,8 C 10,9 km/h
11.08.2017 03:00 18,5 C 82 % 1012,7 hPa 0,8 l/m 0,1 km/h N 15,3 C 18,5 C 3,2 km/h
11.08.2017 04:00 17,9 C 82 % 1012,5 hPa 0,5 l/m 0,1 km/h N 14,8 C 17,9 C 2,0 km/h
11.08.2017 05:00 17,4 C 83 % 1012,5 hPa 0,3 l/m 0,9 km/h N 14,3 C 17,4 C 4,8 km/h
11.08.2017 06:00 16,9 C 83 % 1012,6 hPa 0,3 l/m 0,0 km/h N 14,0 C 16,9 C 5,6 km/h
11.08.2017 07:00 17,1 C 83 % 1012,4 hPa 0,3 l/m 1,6 km/h N 14,1 C 17,1 C 12,1 km/h
11.08.2017 08:00 17,8 C 83 % 1012,3 hPa 0,3 l/m 2,4 km/h N 14,8 C 17,8 C 12,9 km/h
11.08.2017 09:00 18,6 C 82 % 1012,1 hPa 0,3 l/m 0,8 km/h N 15,5 C 18,6 C 11,3 km/h
11.08.2017 10:00 18,2 C 82 % 1012,5 hPa 0,0 l/m 0,8 km/h N 15,1 C 18,2 C 7,3 km/h
11.08.2017 11:00 17,2 C 82 % 1011,3 hPa 0,3 l/m 3,2 km/h N 14,1 C 17,2 C 14,5 km/h
11.08.2017 12:00 19,3 C 82 % 1011,2 hPa 0,0 l/m 1,6 km/h N 16,0 C 19,3 C 15,3 km/h
11.08.2017 13:00 21,9 C 79 % 1010,1 hPa 0,3 l/m 1,6 km/h N 18,0 C 21,9 C 10,5 km/h
11.08.2017 14:00 22,3 C 76 % 1009,9 hPa 0,5 l/m 4,8 km/h N 17,7 C 22,3 C 17,7 km/h
11.08.2017 15:00 20,3 C 74 % 1010,6 hPa 0,3 l/m 6,4 km/h N 15,6 C 20,4 C 21,7 km/h
11.08.2017 16:00 19,4 C 72 % 1010,7 hPa 0,3 l/m 8,1 km/h N 14,1 C 18,7 C 27,4 km/h
11.08.2017 17:00 19,5 C 71 % 1010,5 hPa 0,5 l/m 4,8 km/h N 13,9 C 19,5 C 20,1 km/h
11.08.2017 18:00 19,2 C 71 % 1010,9 hPa 0,0 l/m 5,6 km/h N 13,8 C 19,2 C 30,6 km/h
11.08.2017 19:00 19,3 C 70 % 1011,0 hPa 0,0 l/m 4,0 km/h N 13,6 C 19,3 C 24,1 km/h
11.08.2017 20:00 17,8 C 74 % 1011,3 hPa 0,3 l/m 4,0 km/h N 12,9 C 17,8 C 24,1 km/h
11.08.2017 21:00 17,5 C 73 % 1012,1 hPa 0,0 l/m 3,2 km/h N 12,6 C 17,5 C 16,1 km/h
11.08.2017 22:00 17,2 C 74 % 1012,8 hPa 0,3 l/m 2,4 km/h N 12,4 C 17,2 C 16,9 km/h
11.08.2017 23:00 16,9 C 74 % 1013,0 hPa 0,0 l/m 2,4 km/h N 12,1 C 16,9 C 20,9 km/h
12.08.2017 00:00 16,5 C 73 % 1013,6 hPa 0,0 l/m 5,6 km/h N 11,6 C 16,6 C 27,4 km/h
12.08.2017 01:00 16,3 C 74 % 1014,4 hPa 0,0 l/m 8,9 km/h N 11,7 C 15,1 C 33,0 km/h
12.08.2017 02:00 16,0 C 75 % 1014,3 hPa 0,0 l/m 10,5 km/h N 11,5 C 14,0 C 31,4 km/h
12.08.2017 03:00 15,6 C 76 % 1014,6 hPa 0,0 l/m 6,4 km/h N 11,4 C 15,7 C 24,9 km/h
12.08.2017 04:00 15,8 C 75 % 1014,5 hPa 0,0 l/m 8,9 km/h N 11,3 C 14,6 C 24,1 km/h
12.08.2017 05:00 15,8 C 75 % 1014,1 hPa 0,0 l/m 9,1 km/h N 11,4 C 14,4 C 29,4 km/h
12.08.2017 06:00 15,7 C 77 % 1014,2 hPa 0,0 l/m 4,6 km/h N 11,6 C 15,5 C 22,5 km/h
12.08.2017 07:00 16,6 C 74 % 1014,3 hPa 0,0 l/m 7,9 km/h N 11,9 C 15,7 C 23,4 km/h
12.08.2017 08:00 17,9 C 71 % 1014,7 hPa 0,0 l/m 10,3 km/h N 12,5 C 16,2 C 26,5 km/h
12.08.2017 09:00 18,1 C 71 % 1015,0 hPa 0,3 l/m 12,5 km/h N 12,7 C 15,8 C 31,8 km/h
12.08.2017 10:00 19,4 C 65 % 1015,2 hPa 0,0 l/m 10,6 km/h N 12,6 C 17,8 C 26,6 km/h
12.08.2017 11:00 19,5 C 62 % 1015,7 hPa 0,0 l/m 13,8 km/h N 12,0 C 17,0 C 33,0 km/h
12.08.2017 12:00 20,2 C 61 % 1015,8 hPa 0,0 l/m 11,7 km/h N 12,5 C 18,3 C 31,0 km/h
12.08.2017 13:00 20,2 C 60 % 1015,9 hPa 0,0 l/m 13,4 km/h N 12,1 C 17,9 C 33,8 km/h
12.08.2017 14:00 20,5 C 56 % 1016,1 hPa 0,0 l/m 13,1 km/h N 11,5 C 18,4 C 31,8 km/h
12.08.2017 15:00 21,0 C 57 % 1015,8 hPa 0,0 l/m 12,4 km/h N 12,1 C 19,1 C 33,0 km/h
12.08.2017 16:00 21,1 C 58 % 1015,6 hPa 0,0 l/m 10,9 km/h N 12,5 C 19,7 C 29,4 km/h
12.08.2017 17:00 20,8 C 59 % 1015,5 hPa 0,0 l/m 10,4 km/h N 12,4 C 19,5 C 26,5 km/h
12.08.2017 18:00 20,3 C 62 % 1015,2 hPa 0,0 l/m 11,6 km/h N 12,6 C 18,5 C 29,0 km/h
12.08.2017 19:00 19,7 C 64 % 1015,6 hPa 0,0 l/m 9,6 km/h N 12,6 C 18,4 C 27,4 km/h
12.08.2017 20:00 18,5 C 65 % 1016,3 hPa 0,0 l/m 9,9 km/h N 11,7 C 17,0 C 27,4 km/h
12.08.2017 21:00 17,7 C 64 % 1017,4 hPa 0,0 l/m 7,5 km/h N 10,8 C 17,1 C 21,3 km/h
12.08.2017 22:00 17,3 C 66 % 1017,1 hPa 0,0 l/m 9,3 km/h N 10,9 C 16,0 C 24,5 km/h
12.08.2017 23:00 17,2 C 70 % 1017,5 hPa 0,0 l/m 9,9 km/h N 11,6 C 15,6 C 23,7 km/h
13.08.2017 00:00 17,0 C 71 % 1017,2 hPa 0,0 l/m 10,8 km/h N 11,7 C 15,1 C 25,7 km/h
13.08.2017 01:00 17,2 C 73 % 1016,6 hPa 0,0 l/m 12,2 km/h N 12,2 C 14,7 C 30,6 km/h
13.08.2017 02:00 17,1 C 73 % 1016,3 hPa 0,0 l/m 11,6 km/h N 12,3 C 14,9 C 29,0 km/h
13.08.2017 03:00 17,1 C 74 % 1016,7 hPa 0,3 l/m 9,4 km/h N 12,4 C 15,7 C 24,1 km/h
13.08.2017 04:00 17,1 C 75 % 1016,6 hPa 0,0 l/m 8,9 km/h N 12,5 C 15,9 C 23,7 km/h
13.08.2017 05:00 16,9 C 76 % 1017,1 hPa 0,0 l/m 6,2 km/h N 12,6 C 16,8 C 21,7 km/h
13.08.2017 06:00 16,9 C 76 % 1017,7 hPa 0,0 l/m 7,3 km/h N 12,6 C 16,5 C 19,7 km/h
13.08.2017 07:00 17,0 C 77 % 1018,0 hPa 0,0 l/m 7,0 km/h N 12,9 C 16,6 C 22,1 km/h
13.08.2017 08:00 17,0 C 78 % 1018,7 hPa 0,0 l/m 5,6 km/h N 13,2 C 17,0 C 21,7 km/h
13.08.2017 09:00 17,5 C 77 % 1019,1 hPa 0,0 l/m 6,3 km/h N 13,5 C 17,2 C 19,3 km/h
13.08.2017 10:00 18,5 C 76 % 1019,1 hPa 0,0 l/m 6,2 km/h N 14,1 C 18,4 C 19,3 km/h
13.08.2017 11:00 19,0 C 74 % 1019,1 hPa 0,0 l/m 7,3 km/h N 14,1 C 18,5 C 22,5 km/h
13.08.2017 12:00 20,1 C 70 % 1018,9 hPa 0,0 l/m 9,1 km/h N 14,4 C 19,0 C 24,1 km/h
13.08.2017 13:00 21,2 C 65 % 1018,6 hPa 0,0 l/m 8,7 km/h N 14,4 C 20,4 C 23,7 km/h
13.08.2017 14:00 22,0 C 65 % 1018,4 hPa 0,0 l/m 6,4 km/h N 15,1 C 21,9 C 21,7 km/h
13.08.2017 15:00 22,4 C 63 % 1018,3 hPa 0,0 l/m 7,7 km/h N 15,1 C 22,0 C 24,9 km/h
13.08.2017 16:00 22,6 C 61 % 1018,1 hPa 0,0 l/m 8,7 km/h N 14,6 C 21,9 C 23,7 km/h
13.08.2017 17:00 23,0 C 60 % 1018,1 hPa 0,0 l/m 7,7 km/h N 14,9 C 22,6 C 24,9 km/h
13.08.2017 18:00 22,8 C 61 % 1018,1 hPa 0,0 l/m 6,4 km/h N 14,9 C 22,7 C 20,9 km/h
13.08.2017 19:00 22,4 C 63 % 1018,3 hPa 0,0 l/m 4,3 km/h N 14,9 C 22,4 C 16,5 km/h
13.08.2017 20:00 21,1 C 67 % 1018,9 hPa 0,0 l/m 2,0 km/h N 14,6 C 21,1 C 11,3 km/h
13.08.2017 21:00 20,3 C 70 % 1019,3 hPa 0,0 l/m 3,8 km/h N 14,6 C 20,3 C 12,5 km/h
13.08.2017 22:00 20,4 C 70 % 1019,5 hPa 0,0 l/m 4,3 km/h N 14,8 C 20,4 C 15,7 km/h
13.08.2017 23:00 20,1 C 71 % 1019,8 hPa 0,0 l/m 1,3 km/h N 14,7 C 20,1 C 8,0 km/h
Min-Datum _ 08.08.17 10.08.17 11.08.17 - 07.08.17 - 12.08.17 12.08.17 07.08.17
_ Min-Zeit 03:45 14:15 14:00 - 18:15 - 21:30 04:30 20:15
Minimum _ 14,9 C 41 % 1009,7 hPa - 0,0 km/h - 10,7 C 13,5 C 0,0 km/h
Max-Datum _ 10.08.17 11.08.17 07.08.17 10.08.17 12.08.17 - 10.08.17 10.08.17 10.08.17
_ Max-Zeit 14:15 05:00 07:45 22:15 11:45 - 10:00 14:00 22:15
Maximum _ 32,7 C 83 % 1020,9 hPa 7,3 l/m 18,2 km/h
N
- 21,9 C 32,6 C 54,7 km/h
N
Durchschnitt _ 21,0 C 70 % 1015,2 hPa #23,7 l/m 3,9 km/h N 15,1 C 20,7 C 13,7 km/h